createdAt,value
2023-03-24T00:04:19.210Z,14.12
2023-03-24T00:09:20.741Z,14.01
2023-03-24T00:14:23.470Z,13.98
2023-03-24T00:19:25.000Z,14.01
2023-03-24T00:24:27.267Z,13.96
2023-03-24T00:29:29.456Z,13.99
2023-03-24T00:34:30.878Z,13.92
2023-03-24T00:39:32.824Z,14.00
2023-03-24T00:44:34.362Z,13.79
2023-03-24T00:49:48.202Z,13.80
2023-03-24T00:54:52.075Z,13.78
2023-03-24T00:59:54.610Z,13.85
2023-03-24T01:04:58.698Z,13.74
2023-03-24T01:10:00.348Z,13.73
2023-03-24T01:15:05.588Z,13.78
2023-03-24T01:20:08.375Z,13.84
2023-03-24T01:25:18.885Z,13.98
2023-03-24T01:30:24.929Z,13.90
2023-03-24T01:35:29.305Z,13.97
2023-03-24T01:40:33.347Z,14.10
2023-03-24T01:46:06.079Z,14.10
2023-03-24T01:51:17.411Z,13.91
2023-03-24T01:56:19.575Z,13.83
2023-03-24T02:01:22.012Z,13.85
2023-03-24T02:06:26.591Z,13.85
2023-03-24T02:11:32.388Z,13.78
2023-03-24T02:16:49.105Z,13.65
2023-03-24T02:21:59.532Z,13.80
2023-03-24T02:27:13.788Z,13.92
2023-03-24T02:32:33.328Z,13.90
2023-03-24T02:37:37.459Z,14.04
2023-03-24T02:42:45.744Z,14.02
2023-03-24T02:47:59.297Z,13.97
2023-03-24T02:53:19.391Z,14.02
2023-03-24T02:58:35.252Z,14.03
2023-03-24T03:03:42.635Z,13.93
2023-03-24T03:08:47.704Z,14.05
2023-03-24T03:13:54.464Z,14.01
2023-03-24T03:19:01.342Z,13.95
2023-03-24T03:24:09.383Z,14.06
2023-03-24T03:29:35.139Z,14.00
2023-03-24T03:34:45.622Z,14.02
2023-03-24T03:39:52.654Z,13.86
2023-03-24T03:44:54.350Z,13.81
2023-03-24T03:49:55.803Z,13.71
2023-03-24T03:54:58.848Z,13.70
2023-03-24T04:00:11.997Z,13.74
2023-03-24T04:05:26.112Z,13.71
2023-03-24T04:10:35.983Z,13.64
2023-03-24T04:16:16.352Z,13.65
2023-03-24T04:21:36.375Z,13.66
2023-03-24T04:26:43.333Z,13.71
2023-03-24T04:32:02.361Z,13.73
2023-03-24T04:37:18.415Z,13.90
2023-03-24T04:42:25.557Z,13.98
2023-03-24T04:47:32.315Z,13.98
2023-03-24T04:52:33.761Z,14.04
2023-03-24T04:57:35.280Z,13.98
2023-03-24T05:02:37.031Z,13.68
2023-03-24T05:07:38.566Z,13.61
2023-03-24T05:12:39.983Z,13.64
2023-03-24T05:17:41.855Z,13.62
2023-03-24T05:22:43.343Z,13.62
2023-03-24T05:27:45.596Z,13.66
2023-03-24T05:32:47.470Z,13.75
2023-03-24T05:37:48.996Z,13.82
2023-03-24T05:42:51.078Z,13.91
2023-03-24T05:47:52.597Z,13.87
2023-03-24T05:52:54.127Z,13.92
2023-03-24T05:57:55.861Z,13.97
2023-03-24T06:02:58.271Z,13.94
2023-03-24T06:08:01.392Z,13.97
2023-03-24T06:13:03.337Z,14.02
2023-03-24T06:18:05.282Z,14.25
2023-03-24T06:23:06.914Z,14.37
2023-03-24T06:28:12.317Z,14.34
2023-03-24T06:33:13.914Z,14.47
2023-03-24T06:38:15.434Z,14.50
2023-03-24T06:43:16.875Z,14.58
2023-03-24T06:48:18.318Z,14.71
2023-03-24T06:53:21.765Z,14.88
2023-03-24T06:58:23.228Z,14.94
2023-03-24T07:03:25.119Z,14.99
2023-03-24T07:08:37.329Z,15.09
2023-03-24T07:13:40.146Z,14.95
2023-03-24T07:18:41.632Z,14.96
2023-03-24T07:23:43.093Z,15.10
2023-03-24T07:28:44.515Z,15.10
2023-03-24T07:33:46.035Z,15.08
2023-03-24T07:38:47.607Z,15.04
2023-03-24T07:43:49.029Z,15.03
2023-03-24T07:48:50.462Z,14.81
2023-03-24T07:53:52.224Z,14.71
2023-03-24T07:58:53.684Z,14.60
2023-03-24T08:03:56.152Z,14.52
2023-03-24T08:08:57.840Z,14.56
2023-03-24T08:13:59.431Z,14.57
2023-03-24T08:19:00.918Z,14.53
2023-03-24T08:24:02.346Z,14.63
2023-03-24T08:29:04.150Z,14.87
2023-03-24T08:34:06.570Z,15.27
2023-03-24T08:39:09.673Z,15.87
2023-03-24T08:44:11.743Z,16.41
2023-03-24T08:49:13.159Z,16.70
2023-03-24T08:54:14.675Z,16.76
2023-03-24T08:59:16.435Z,16.69
2023-03-24T09:04:17.904Z,16.45
2023-03-24T09:09:19.403Z,16.63
2023-03-24T09:14:22.645Z,16.76
2023-03-24T09:19:24.065Z,16.83
2023-03-24T09:24:25.525Z,16.80
2023-03-24T09:29:27.070Z,16.71
2023-03-24T09:34:28.691Z,16.83
2023-03-24T09:39:30.124Z,16.78
2023-03-24T09:44:36.879Z,16.93
2023-03-24T09:49:42.127Z,16.95
2023-03-24T09:54:59.705Z,17.11
2023-03-24T10:00:02.348Z,17.26
2023-03-24T10:05:12.905Z,17.34
2023-03-24T10:10:33.405Z,17.54
2023-03-24T10:15:49.709Z,17.75
2023-03-24T10:21:25.398Z,17.91
2023-03-24T10:26:42.248Z,18.14
2023-03-24T10:31:48.515Z,18.50
2023-03-24T10:36:52.339Z,18.92
2023-03-24T10:41:54.702Z,19.32
2023-03-24T10:47:02.530Z,19.41
2023-03-24T10:52:09.522Z,19.64
2023-03-24T10:57:18.370Z,19.19
2023-03-24T11:02:52.881Z,19.14
2023-03-24T11:08:12.318Z,19.07
2023-03-24T11:13:28.758Z,18.97
2023-03-24T11:18:30.262Z,19.03
2023-03-24T11:23:44.563Z,19.17
2023-03-24T11:28:52.382Z,19.23
2023-03-24T11:34:03.496Z,19.00
2023-03-24T11:39:07.605Z,18.93
2023-03-24T11:44:23.658Z,18.92
2023-03-24T11:49:35.045Z,18.93
2023-03-24T11:54:36.887Z,18.85
2023-03-24T12:00:00.007Z,18.65
2023-03-24T12:05:23.715Z,18.66
2023-03-24T12:10:41.133Z,18.66
2023-03-24T12:16:00.611Z,18.78
2023-03-24T12:21:13.108Z,18.77
2023-03-24T12:26:28.527Z,18.37
2023-03-24T12:31:32.869Z,18.65
2023-03-24T12:36:53.201Z,18.54
2023-03-24T12:41:57.571Z,18.70
2023-03-24T12:47:29.609Z,18.76
2023-03-24T12:53:07.571Z,18.79
2023-03-24T12:58:19.858Z,18.68
2023-03-24T13:03:29.521Z,18.59
2023-03-24T13:08:32.182Z,18.60
2023-03-24T13:13:40.110Z,18.46
2023-03-24T13:18:50.616Z,18.37
2023-03-24T13:23:57.348Z,18.32
2023-03-24T13:29:48.416Z,18.40
2023-03-24T13:35:17.462Z,18.21
2023-03-24T13:40:27.726Z,18.43
2023-03-24T13:45:39.114Z,18.37
2023-03-24T13:50:48.728Z,18.27
2023-03-24T13:55:52.840Z,18.27
2023-03-24T14:01:06.800Z,18.36
2023-03-24T14:06:09.759Z,18.31
2023-03-24T14:11:38.277Z,18.25
2023-03-24T14:17:01.834Z,18.41
2023-03-24T14:22:06.363Z,18.51
2023-03-24T14:27:35.004Z,18.50
2023-03-24T14:32:47.332Z,18.48
2023-03-24T14:38:02.959Z,18.50
2023-03-24T14:43:15.904Z,18.48
2023-03-24T14:48:29.725Z,18.48
2023-03-24T14:53:37.401Z,18.81
2023-03-24T14:58:42.794Z,18.89
2023-03-24T15:03:53.556Z,18.85
2023-03-24T15:09:01.441Z,18.61
2023-03-24T15:14:05.459Z,18.66
2023-03-24T15:19:22.928Z,18.59
2023-03-24T15:24:36.102Z,18.70
2023-03-24T15:29:42.818Z,18.73
2023-03-24T15:34:50.770Z,18.74
2023-03-24T15:40:01.896Z,18.57
2023-03-24T15:45:26.494Z,18.50
2023-03-24T15:50:39.734Z,18.52
2023-03-24T15:55:43.179Z,18.35
2023-03-24T16:00:45.708Z,18.24
2023-03-24T16:05:48.961Z,18.18
2023-03-24T16:10:59.345Z,18.23
2023-03-24T16:16:17.261Z,18.24
2023-03-24T16:21:27.247Z,18.10
2023-03-24T16:26:31.422Z,18.01
2023-03-24T16:31:35.508Z,17.90
2023-03-24T16:36:37.132Z,17.85
2023-03-24T16:41:38.594Z,17.70
2023-03-24T16:46:41.227Z,17.71
2023-03-24T16:51:43.389Z,17.45
2023-03-24T16:56:44.881Z,17.48
2023-03-24T17:01:46.784Z,17.39
2023-03-24T17:06:52.802Z,17.33
2023-03-24T17:11:57.013Z,17.34
2023-03-24T17:16:59.734Z,17.13
2023-03-24T17:22:03.636Z,17.33
2023-03-24T17:27:18.796Z,17.28
2023-03-24T17:32:22.288Z,17.10
2023-03-24T17:37:25.909Z,17.01
2023-03-24T17:42:28.694Z,17.07
2023-03-24T17:47:30.913Z,17.17
2023-03-24T17:52:32.517Z,16.54
2023-03-24T17:57:34.500Z,16.28
2023-03-24T18:02:36.055Z,15.18
2023-03-24T18:07:39.810Z,15.34
2023-03-24T18:12:41.558Z,15.30
2023-03-24T18:17:43.055Z,14.74
2023-03-24T18:22:44.526Z,14.69
2023-03-24T18:27:46.182Z,14.60
2023-03-24T18:32:48.348Z,14.59
2023-03-24T18:37:49.815Z,14.27
2023-03-24T18:42:51.392Z,14.02
2023-03-24T18:47:52.869Z,14.00
2023-03-24T18:52:54.322Z,13.95
2023-03-24T18:57:55.937Z,14.01
2023-03-24T19:02:57.484Z,13.98
2023-03-24T19:08:01.479Z,13.97
2023-03-24T19:13:05.241Z,14.08
2023-03-24T19:18:07.575Z,13.86
2023-03-24T19:23:09.156Z,13.80
2023-03-24T19:28:10.595Z,13.77
2023-03-24T19:33:13.229Z,13.78
2023-03-24T19:38:16.278Z,13.91
2023-03-24T19:43:18.399Z,13.84
2023-03-24T19:48:20.879Z,13.89
2023-03-24T19:53:24.368Z,13.77
2023-03-24T19:58:26.049Z,13.79
2023-03-24T20:03:28.808Z,13.90
2023-03-24T20:08:30.805Z,13.87
2023-03-24T20:13:32.235Z,13.78
2023-03-24T20:18:34.561Z,13.79
2023-03-24T20:23:36.187Z,13.72
2023-03-24T20:28:37.601Z,13.70
2023-03-24T20:33:39.066Z,13.63
2023-03-24T20:38:40.796Z,13.59
2023-03-24T20:43:42.371Z,13.58
2023-03-24T20:48:44.040Z,13.46
2023-03-24T20:53:49.784Z,13.43
2023-03-24T20:58:52.082Z,13.42
2023-03-24T21:03:55.608Z,13.34
2023-03-24T21:09:01.588Z,13.28
2023-03-24T21:14:03.772Z,13.20
2023-03-24T21:19:05.250Z,13.04
2023-03-24T21:24:06.968Z,13.02
2023-03-24T21:29:08.370Z,13.15
2023-03-24T21:34:09.969Z,13.30
2023-03-24T21:39:12.064Z,13.23
2023-03-24T21:44:13.726Z,13.14
2023-03-24T21:49:18.818Z,13.08
2023-03-24T21:54:20.899Z,13.22
2023-03-24T21:59:23.203Z,13.21
2023-03-24T22:04:25.230Z,12.81
2023-03-24T22:09:27.517Z,12.77
2023-03-24T22:14:28.936Z,12.65
2023-03-24T22:19:30.493Z,12.68
2023-03-24T22:24:31.959Z,12.62
2023-03-24T22:29:33.362Z,12.62
2023-03-24T22:34:34.815Z,12.42
2023-03-24T22:39:36.331Z,12.64
2023-03-24T22:44:38.481Z,12.58
2023-03-24T22:49:41.419Z,12.72
2023-03-24T22:54:42.997Z,12.51
2023-03-24T22:59:44.619Z,12.63
2023-03-24T23:04:46.365Z,12.48
2023-03-24T23:09:47.880Z,12.48
2023-03-24T23:14:49.375Z,12.44
2023-03-24T23:19:52.095Z,12.50
2023-03-24T23:25:00.534Z,12.53
2023-03-24T23:30:07.078Z,12.53
2023-03-24T23:35:09.433Z,12.48
2023-03-24T23:40:14.946Z,12.44
2023-03-24T23:45:19.290Z,12.40
2023-03-24T23:50:21.543Z,12.41
2023-03-24T23:55:23.115Z,12.30
